»·PEaware :: EAW2128 KTUS-KPHX

EAW2128 :: KTUS-KPHX

FLIGHT INFORMATION

Flight Status: Arrived
Operator: Unknown
More flights by this operator :: More flights under this callsign
Pilot: Dave P. (45)
Aircraft: DEHAVILLAND DASH 8 400
(DH8D)
More flights by this aircraft type
Origin: KTUS Tucson Intl
United States
Destination: KPHX Phoenix Sky Harbor Intl
United States
More flights between these airports :: More routes between these airports
Route: +TUS8 TUS SUNSS8
File this flight plan on PilotEdge
Remarks: EAW = Eagle Airways, callsign 'Eagle"
Altitude:
(Current/Filed)
16,000ft
Speed:
(Current/Filed)
318kts
Departed: 27-May-19 03:19 PM
Arrived: 27-May-19 03:57 PM
Distance/Time
Traveled:
96nm/0:38
Distance/Time
To Go:
Arrived

Flight Plot

Page will automatically refresh every two minutes.

Flight plan parsing failed; only flown route is shown


Map Options




Map Legend


Flown Route
Filed Route
Departure Airport
Arrival Airport
Navaid (VOR, NDB)
Fix

Horizontal Profiles

Position Reports

Time Latitude Longitude Heading Altitude Ground
Speed
27-May-19 14:43 32.118933 -110.937113 121 2650ft 0kts
27-May-19 14:44 32.118933 -110.937113 121 2650ft 0kts
27-May-19 14:45 32.118933 -110.937113 121 2650ft 0kts
27-May-19 14:46 32.118933 -110.937113 121 2650ft 0kts
27-May-19 14:47 32.118933 -110.937113 121 2650ft 0kts
27-May-19 14:48 32.118933 -110.937113 121 2650ft 0kts
27-May-19 14:49 32.118933 -110.937113 121 2650ft 0kts
27-May-19 14:50 32.118933 -110.937113 121 2650ft 0kts
27-May-19 14:51 32.118933 -110.937113 121 2650ft 0kts
27-May-19 14:52 32.118933 -110.937113 121 2650ft 0kts
27-May-19 14:53 32.118933 -110.937113 121 2650ft 0kts
27-May-19 14:54 32.118933 -110.937113 121 2650ft 0kts
27-May-19 14:55 32.118933 -110.937113 121 2650ft 0kts
27-May-19 14:56 32.118933 -110.937113 121 2650ft 0kts
27-May-19 14:57 32.118933 -110.937113 121 2650ft 0kts
27-May-19 14:58 32.118933 -110.937113 121 2650ft 0kts
27-May-19 14:59 32.118933 -110.937113 121 2650ft 0kts
27-May-19 15:00 32.118933 -110.937113 121 2650ft 0kts
27-May-19 15:01 32.118933 -110.937113 121 2650ft 0kts
27-May-19 15:02 32.118933 -110.937113 121 2650ft 0kts
27-May-19 15:03 32.118933 -110.937113 121 2650ft 0kts
27-May-19 15:04 32.118933 -110.937113 121 2650ft 0kts
27-May-19 15:05 32.118933 -110.937113 121 2650ft 0kts
27-May-19 15:06 32.119076 -110.937390 121 2650ft 3kts
27-May-19 15:07 32.119282 -110.937780 122 2650ft 0kts
27-May-19 15:08 32.119282 -110.937780 122 2650ft 0kts
27-May-19 15:09 32.119282 -110.937780 122 2650ft 0kts
27-May-19 15:10 32.119282 -110.937780 122 2650ft 0kts
27-May-19 15:11 32.118943 -110.939989 177 2650ft 7kts
27-May-19 15:12 32.115836 -110.937442 134 2650ft 21kts
27-May-19 15:13 32.111571 -110.932374 134 2650ft 22kts
27-May-19 15:14 32.107069 -110.927082 135 2650ft 23kts
27-May-19 15:15 32.102689 -110.921948 135 2650ft 11kts
27-May-19 15:16 32.102023 -110.921827 223 2650ft 0kts
27-May-19 15:17 32.102022 -110.921827 223 2650ft 0kts
27-May-19 15:18 32.108392 -110.930343 314 2651ft 125kts
27-May-19 15:19 32.145313 -110.966847 346 4114ft 214kts
27-May-19 15:20 32.179563 -110.914187 106 6366ft 244kts
27-May-19 15:21 32.128748 -110.896820 229 8866ft 220kts
27-May-19 15:22 32.152047 -110.952542 343 11237ft 257kts
27-May-19 15:23 32.224632 -110.965364 341 13019ft 267kts
27-May-19 15:24 32.298628 -110.980753 339 14568ft 273kts
27-May-19 15:25 32.374298 -110.996989 337 15857ft 282kts
27-May-19 15:26 32.456246 -111.016019 338 15997ft 315kts
27-May-19 15:27 32.545378 -111.036517 338 15996ft 333kts
27-May-19 15:28 32.637146 -111.061937 336 15987ft 343kts
27-May-19 15:29 32.730783 -111.087766 337 15986ft 349kts
27-May-19 15:30 32.804748 -111.146581 303 15736ft 314kts
27-May-19 15:31 32.862526 -111.222940 304 14046ft 303kts
27-May-19 15:32 32.916500 -111.293028 305 12443ft 286kts
27-May-19 15:33 32.969928 -111.362676 306 10888ft 282kts
27-May-19 15:34 33.022815 -111.431595 307 10075ft 281kts
27-May-19 15:35 33.075622 -111.499730 307 10051ft 277kts
27-May-19 15:36 33.128380 -111.567830 307 10044ft 284kts
27-May-19 15:37 33.182180 -111.637390 307 10051ft 283kts
27-May-19 15:38 33.235871 -111.706782 307 10046ft 281kts
27-May-19 15:39 33.286748 -111.773712 307 8305ft 273kts
27-May-19 15:40 33.336435 -111.840639 307 6984ft 267kts
27-May-19 15:41 33.384864 -111.905917 307 6059ft 249kts
27-May-19 15:42 33.420540 -111.970633 262 6011ft 227kts
27-May-19 15:43 33.403562 -112.044199 250 5996ft 227kts
27-May-19 15:44 33.385036 -112.117104 251 5996ft 228kts
27-May-19 15:45 33.366087 -112.190633 251 6006ft 234kts
27-May-19 15:46 33.346588 -112.265387 251 6008ft 235kts
27-May-19 15:47 33.327001 -112.340195 251 6013ft 233kts
27-May-19 15:48 33.335920 -112.409552 331 5720ft 230kts
27-May-19 15:49 33.393347 -112.387033 30 4105ft 221kts
27-May-19 15:50 33.445528 -112.344953 54 4008ft 226kts
27-May-19 15:51 33.446688 -112.275603 101 2757ft 209kts
27-May-19 15:52 33.439774 -112.208362 101 2480ft 203kts
27-May-19 15:53 33.429303 -112.144776 103 2565ft 197kts
27-May-19 15:54 33.428573 -112.088599 89 1922ft 147kts
27-May-19 15:55 33.428724 -112.040029 88 1435ft 146kts
27-May-19 15:56 33.428911 -112.011806 78 1142ft 16kts
27-May-19 15:57 33.429481 -112.010768 29 1142ft 0kts
27-May-19 15:58 33.429507 -112.010750 29 1142ft 0kts
27-May-19 15:59 33.429923 -112.009533 87 1142ft 12kts
27-May-19 16:00 33.432118 -112.009593 275 1142ft 9kts
27-May-19 16:01 33.434612 -112.010582 9 1142ft 9kts
27-May-19 16:02 33.435254 -112.011276 235 1142ft 0kts
27-May-19 16:03 33.435254 -112.011276 235 1142ft 0kts
27-May-19 16:04 33.435254 -112.011276 235 1142ft 0kts
27-May-19 16:05 33.435254 -112.011276 235 1142ft 0kts
27-May-19 16:06 33.435254 -112.011276 235 1142ft 0kts

Navigation Log

Ident Type
Flight plan parsing failed, navigation log unavailable